createdAt,value
2023-08-11T04:31:41.526Z,10.56
2023-08-11T04:35:45.029Z,10.71
2023-08-11T04:39:48.201Z,10.87
2023-08-11T04:43:51.451Z,11.06
2023-08-11T04:47:54.428Z,11.20
2023-08-11T04:51:58.140Z,11.35
2023-08-11T04:56:01.007Z,11.48
2023-08-11T05:00:07.665Z,11.92
2023-08-11T05:04:10.637Z,12.17
2023-08-11T05:08:14.398Z,12.47
2023-08-11T05:12:17.921Z,12.54
2023-08-11T05:16:21.396Z,12.78
2023-08-11T05:20:24.635Z,12.97
2023-08-11T05:24:27.968Z,13.22
2023-08-11T05:28:30.909Z,13.61
2023-08-11T05:32:34.224Z,13.89
2023-08-11T05:36:37.498Z,14.16
2023-08-11T05:40:42.260Z,14.15
2023-08-11T05:44:45.073Z,14.39
2023-08-11T05:48:49.614Z,14.73
2023-08-11T05:52:52.342Z,15.00
2023-08-11T05:56:55.781Z,15.36
2023-08-11T06:00:58.666Z,15.62
2023-08-11T06:05:02.040Z,15.90
2023-08-11T06:09:07.540Z,16.22
2023-08-11T06:13:10.909Z,16.55
2023-08-11T06:17:14.062Z,16.85
2023-08-11T06:21:18.806Z,17.15
2023-08-11T06:25:21.699Z,17.38
2023-08-11T06:29:24.850Z,17.60
2023-08-11T06:33:27.661Z,17.92
2023-08-11T06:37:31.246Z,18.24
2023-08-11T06:41:34.101Z,18.31
2023-08-11T06:45:37.383Z,18.49
2023-08-11T06:49:40.209Z,18.79
2023-08-11T06:53:43.457Z,18.89
2023-08-11T06:57:46.271Z,19.15
2023-08-11T07:01:49.445Z,19.39
2023-08-11T07:05:53.040Z,19.60
2023-08-11T07:09:56.321Z,19.86
2023-08-11T07:13:59.041Z,19.99
2023-08-11T07:18:02.291Z,20.57
2023-08-11T07:22:06.210Z,20.81
2023-08-11T07:26:09.327Z,20.77
2023-08-11T07:30:12.616Z,21.24
2023-08-11T07:34:15.832Z,21.52
2023-08-11T07:38:19.734Z,21.72
2023-08-11T07:42:22.901Z,21.85
2023-08-11T07:46:25.761Z,22.10
2023-08-11T07:50:29.010Z,22.58
2023-08-11T07:54:32.159Z,22.51
2023-08-11T07:58:35.390Z,22.19
2023-08-11T08:02:38.257Z,22.52
2023-08-11T08:06:46.980Z,22.84
2023-08-11T08:10:49.935Z,23.04
2023-08-11T08:14:52.963Z,22.92
2023-08-11T08:18:55.937Z,23.39
2023-08-11T08:22:59.305Z,23.61
2023-08-11T08:27:02.040Z,23.48
2023-08-11T08:31:06.762Z,23.69
2023-08-11T08:35:12.548Z,23.80
2023-08-11T08:39:15.691Z,24.11
2023-08-11T08:43:18.568Z,23.67
2023-08-11T08:47:23.546Z,24.70
2023-08-11T08:51:26.599Z,24.03
2023-08-11T08:55:29.729Z,24.57
2023-08-11T08:59:32.397Z,24.36
2023-08-11T09:03:38.514Z,24.86
2023-08-11T09:07:41.595Z,24.88
2023-08-11T09:11:44.884Z,25.19
2023-08-11T09:15:47.894Z,25.74
2023-08-11T09:19:54.460Z,25.51
2023-08-11T09:23:57.801Z,25.76
2023-08-11T09:28:01.078Z,25.80
2023-08-11T09:32:05.635Z,26.17
2023-08-11T09:36:09.367Z,26.17
2023-08-11T09:40:12.908Z,26.17
2023-08-11T09:44:20.312Z,25.27
2023-08-11T09:48:23.569Z,26.26
2023-08-11T09:52:28.231Z,26.47
2023-08-11T09:56:31.305Z,27.35
2023-08-11T10:00:35.102Z,27.51
2023-08-11T10:04:43.118Z,27.93
2023-08-11T10:08:46.993Z,28.05
2023-08-11T10:12:58.197Z,27.86
2023-08-11T10:17:00.984Z,27.70
2023-08-11T10:21:04.628Z,28.63
2023-08-11T10:25:09.664Z,27.75
2023-08-11T10:29:13.316Z,26.31
2023-08-11T10:33:16.138Z,27.65
2023-08-11T10:37:19.194Z,28.02
2023-08-11T10:41:22.817Z,26.35
2023-08-11T10:45:28.023Z,25.82
2023-08-11T10:49:34.315Z,25.26
2023-08-11T10:53:41.090Z,24.96
2023-08-11T10:57:43.915Z,26.25
2023-08-11T11:01:48.909Z,27.73
2023-08-11T11:05:51.880Z,28.33
2023-08-11T11:09:55.019Z,28.86
2023-08-11T11:13:58.522Z,29.44
2023-08-11T11:18:02.479Z,29.19
2023-08-11T11:22:08.290Z,29.58
2023-08-11T11:26:11.394Z,30.14
2023-08-11T11:30:14.926Z,28.75
2023-08-11T11:34:21.749Z,27.51
2023-08-11T11:38:25.761Z,26.60
2023-08-11T11:42:32.642Z,26.35
2023-08-11T11:46:37.021Z,25.86
2023-08-11T11:50:41.125Z,25.86
2023-08-11T11:54:44.940Z,28.05
2023-08-11T11:58:49.809Z,27.62
2023-08-11T12:02:53.484Z,27.41
2023-08-11T12:06:57.163Z,26.60
2023-08-11T12:11:01.643Z,27.96
2023-08-11T12:15:07.133Z,29.54
2023-08-11T12:19:11.108Z,29.90
2023-08-11T12:23:14.290Z,29.95
2023-08-11T12:27:17.229Z,30.33
2023-08-11T12:31:20.442Z,30.66
2023-08-11T12:35:23.373Z,30.91
2023-08-11T12:39:26.610Z,31.48
2023-08-11T12:43:29.433Z,31.50
2023-08-11T12:47:32.593Z,31.31
2023-08-11T12:51:35.310Z,31.44
2023-08-11T12:55:40.982Z,31.50
2023-08-11T12:59:43.756Z,29.78
2023-08-11T13:03:47.140Z,27.77
2023-08-11T13:07:49.926Z,26.96
2023-08-11T13:11:53.092Z,26.59
2023-08-11T13:15:55.783Z,27.27
2023-08-11T13:20:02.389Z,27.09
2023-08-11T13:24:06.140Z,28.96
2023-08-11T13:28:09.295Z,29.51
2023-08-11T13:32:12.313Z,30.43
2023-08-11T13:36:17.086Z,30.52
2023-08-11T13:40:20.358Z,30.38
2023-08-11T13:44:23.439Z,31.13
2023-08-11T13:48:27.620Z,31.18
2023-08-11T13:52:32.067Z,31.15
2023-08-11T13:56:35.051Z,30.02
2023-08-11T14:00:38.142Z,30.23
2023-08-11T14:04:41.386Z,31.72
2023-08-11T14:08:44.686Z,30.40
2023-08-11T14:12:47.955Z,30.12
2023-08-11T14:16:50.700Z,28.02
2023-08-11T14:20:53.823Z,30.44
2023-08-11T14:24:57.898Z,30.73
2023-08-11T14:29:02.641Z,31.40
2023-08-11T14:33:05.521Z,31.16
2023-08-11T14:37:08.936Z,32.04
2023-08-11T14:41:11.762Z,32.17
2023-08-11T14:45:16.039Z,31.61
2023-08-11T14:49:19.217Z,32.55
2023-08-11T14:53:24.311Z,31.99
